»·PEaware :: UAL392 KPDX-KSFO

UAL392 :: KPDX-KSFO

FLIGHT INFORMATION

Flight Status: Arrived
Operator:
United Airlines
More flights by this operator :: More flights under this callsign
Pilot: Sanjiv S. (4490)
Aircraft: AIRBUS A319
(A319)
More flights by this aircraft type
Origin: KPDX Portland Intl
United States
Destination: KSFO San Francisco Intl
United States
More flights between these airports :: More routes between these airports
Route: MINNE5 EASON Q1 ETCHY MLBEC BDEGA3
File this flight plan on PilotEdge
Remarks: PBN / A1B1C1D1O1S1 DOF / 190127 REG / N242SK EET / KZOA0038 OPR / UAL PER / C TALT / KBFI RMK / TCAS SIMBRIEF
Altitude:
(Current/Filed)
37,000ft
Speed:
(Current/Filed)
441kts
Departed: 27-Jan-19 10:33 AM
Arrived: 27-Jan-19 12:03 PM
Distance/Time
Traveled:
478nm/1:29
Distance/Time
To Go:
Arrived

Flight Plot

Page will automatically refresh every two minutes.

Flight plan parsing failed; only flown route is shown


Map Options




Map Legend


Flown Route
Filed Route
Departure Airport
Arrival Airport
Navaid (VOR, NDB)
Fix

Horizontal Profiles

Position Reports

Time Latitude Longitude Heading Altitude Ground
Speed
27-Jan-19 09:53 45.589335 -122.589387 208 38ft 0kts
27-Jan-19 09:54 45.589335 -122.589387 208 38ft 0kts
27-Jan-19 09:55 45.589335 -122.589387 208 38ft 0kts
27-Jan-19 09:56 45.589335 -122.589387 208 38ft 0kts
27-Jan-19 09:57 45.589335 -122.589387 208 38ft 0kts
27-Jan-19 09:58 45.589335 -122.589387 208 38ft 0kts
27-Jan-19 09:59 45.589335 -122.589387 208 38ft 0kts
27-Jan-19 10:00 45.589335 -122.589387 208 38ft 0kts
27-Jan-19 10:01 45.589335 -122.589387 208 38ft 0kts
27-Jan-19 10:02 45.589335 -122.589387 208 38ft 0kts
27-Jan-19 10:03 45.589335 -122.589387 208 38ft 0kts
27-Jan-19 10:04 45.589335 -122.589387 208 38ft 0kts
27-Jan-19 10:05 45.589335 -122.589387 208 38ft 0kts
27-Jan-19 10:06 45.589335 -122.589387 208 38ft 0kts
27-Jan-19 10:07 45.589335 -122.589387 208 38ft 0kts
27-Jan-19 10:08 45.589335 -122.589387 208 38ft 0kts
27-Jan-19 10:09 45.589335 -122.589387 208 38ft 0kts
27-Jan-19 10:10 45.589335 -122.589387 208 38ft 0kts
27-Jan-19 10:11 45.589335 -122.589387 208 38ft 0kts
27-Jan-19 10:12 45.589335 -122.589387 208 38ft 0kts
27-Jan-19 10:13 45.589335 -122.589387 208 38ft 0kts
27-Jan-19 10:14 45.589335 -122.589387 208 38ft 0kts
27-Jan-19 10:15 45.589335 -122.589387 208 38ft 0kts
27-Jan-19 10:16 45.589335 -122.589387 208 38ft 0kts
27-Jan-19 10:17 45.589335 -122.589387 208 38ft 0kts
27-Jan-19 10:18 45.589335 -122.589387 208 38ft 0kts
27-Jan-19 10:19 45.589335 -122.589387 208 38ft 0kts
27-Jan-19 10:20 45.589361 -122.589364 207 38ft 2kts
27-Jan-19 10:21 45.589671 -122.589760 74 38ft 0kts
27-Jan-19 10:22 45.589671 -122.589759 74 38ft 0kts
27-Jan-19 10:23 45.589671 -122.589759 74 38ft 0kts
27-Jan-19 10:24 45.589671 -122.589759 74 38ft 0kts
27-Jan-19 10:25 45.589671 -122.589759 74 38ft 0kts
27-Jan-19 10:26 45.590516 -122.589979 297 38ft 9kts
27-Jan-19 10:27 45.592398 -122.594738 296 38ft 16kts
27-Jan-19 10:28 45.593801 -122.598419 299 38ft 0kts
27-Jan-19 10:29 45.594148 -122.599299 299 38ft 7kts
27-Jan-19 10:30 45.595404 -122.600698 30 38ft 0kts
27-Jan-19 10:31 45.596070 -122.600125 35 38ft 9kts
27-Jan-19 10:32 45.587770 -122.577527 118 67ft 170kts
27-Jan-19 10:33 45.573610 -122.513504 100 2676ft 193kts
27-Jan-19 10:34 45.559685 -122.425640 107 5282ft 258kts
27-Jan-19 10:35 45.531386 -122.328002 151 6992ft 269kts
27-Jan-19 10:36 45.459566 -122.313107 181 7195ft 271kts
27-Jan-19 10:37 45.411153 -122.377076 250 10517ft 267kts
27-Jan-19 10:38 45.376245 -122.488145 250 11901ft 347kts
27-Jan-19 10:39 45.333006 -122.623487 250 13946ft 389kts
27-Jan-19 10:40 45.287425 -122.765382 250 16488ft 402kts
27-Jan-19 10:41 45.240133 -122.911540 249 18678ft 414kts
27-Jan-19 10:42 45.143795 -123.008524 205 20604ft 461kts
27-Jan-19 10:43 45.021842 -123.068657 205 22289ft 472kts
27-Jan-19 10:44 44.896960 -123.130998 206 23426ft 481kts
27-Jan-19 10:45 44.769732 -123.194031 206 25038ft 485kts
27-Jan-19 10:46 44.643405 -123.256653 207 26900ft 480kts
27-Jan-19 10:47 44.518262 -123.315945 202 28605ft 483kts
27-Jan-19 10:48 44.380924 -123.323289 186 30172ft 498kts
27-Jan-19 10:49 44.244126 -123.317268 187 31536ft 495kts
27-Jan-19 10:50 44.107337 -123.311780 188 32941ft 488kts
27-Jan-19 10:51 43.972757 -123.306493 188 34118ft 484kts
27-Jan-19 10:52 43.838373 -123.301254 188 35036ft 484kts
27-Jan-19 10:53 43.704227 -123.295930 188 35902ft 481kts
27-Jan-19 10:54 43.571221 -123.290767 188 36558ft 480kts
27-Jan-19 10:55 43.438654 -123.285642 188 37080ft 481kts
27-Jan-19 10:56 43.304905 -123.280464 188 37398ft 481kts
27-Jan-19 10:57 43.171499 -123.275329 188 37402ft 481kts
27-Jan-19 10:58 43.037800 -123.270207 188 37402ft 480kts
27-Jan-19 10:59 42.905309 -123.265248 187 37404ft 473kts
27-Jan-19 11:00 42.774359 -123.260124 187 37403ft 470kts
27-Jan-19 11:01 42.643903 -123.255175 187 37412ft 470kts
27-Jan-19 11:02 42.513760 -123.250292 187 37423ft 470kts
27-Jan-19 11:03 42.383436 -123.245431 187 37428ft 470kts
27-Jan-19 11:04 42.253414 -123.240650 187 37428ft 470kts
27-Jan-19 11:05 42.123239 -123.235893 187 37428ft 470kts
27-Jan-19 11:06 41.993127 -123.231155 187 37428ft 470kts
27-Jan-19 11:07 41.862676 -123.226386 187 37421ft 469kts
27-Jan-19 11:08 41.733600 -123.221656 187 37434ft 470kts
27-Jan-19 11:09 41.603226 -123.216979 187 37420ft 469kts
27-Jan-19 11:10 41.473763 -123.212515 187 37400ft 469kts
27-Jan-19 11:11 41.343396 -123.208045 187 37394ft 469kts
27-Jan-19 11:12 41.213271 -123.204597 187 37394ft 468kts
27-Jan-19 11:13 41.083212 -123.201403 187 37394ft 469kts
27-Jan-19 11:14 40.953561 -123.198255 186 37361ft 470kts
27-Jan-19 11:15 40.824290 -123.194871 185 37327ft 471kts
27-Jan-19 11:16 40.695236 -123.191591 185 37322ft 471kts
27-Jan-19 11:17 40.566085 -123.188379 186 37322ft 471kts
27-Jan-19 11:18 40.435903 -123.185174 186 37323ft 471kts
27-Jan-19 11:19 40.305549 -123.181970 186 37323ft 471kts
27-Jan-19 11:20 40.175363 -123.178778 186 37323ft 471kts
27-Jan-19 11:21 40.045238 -123.175604 186 37324ft 470kts
27-Jan-19 11:22 39.915146 -123.171796 184 37327ft 471kts
27-Jan-19 11:23 39.784762 -123.165426 184 37326ft 471kts
27-Jan-19 11:24 39.655215 -123.159397 184 37327ft 471kts
27-Jan-19 11:25 39.528401 -123.153574 185 37327ft 471kts
27-Jan-19 11:26 39.399846 -123.147681 185 37327ft 471kts
27-Jan-19 11:27 39.269716 -123.141754 185 37327ft 471kts
27-Jan-19 11:28 39.139827 -123.131784 176 37164ft 479kts
27-Jan-19 11:29 39.014956 -123.072982 153 36336ft 494kts
27-Jan-19 11:30 38.903321 -122.986145 157 35402ft 492kts
27-Jan-19 11:32 38.798187 -122.935213 169 33010ft 481kts
27-Jan-19 11:33 38.685496 -122.902186 170 29647ft 491kts
27-Jan-19 11:34 38.578177 -122.870304 170 28304ft 459kts
27-Jan-19 11:35 38.475494 -122.840055 170 27098ft 446kts
27-Jan-19 11:36 38.369687 -122.809016 170 25472ft 431kts
27-Jan-19 11:37 38.267006 -122.778935 169 23897ft 419kts
27-Jan-19 11:38 38.171082 -122.751022 169 21785ft 423kts
27-Jan-19 11:39 38.069520 -122.721552 168 19055ft 430kts
27-Jan-19 11:40 37.972090 -122.693282 168 16641ft 424kts
27-Jan-19 11:41 37.877343 -122.649993 138 14147ft 414kts
27-Jan-19 11:42 37.829578 -122.573093 123 12240ft 401kts
27-Jan-19 11:43 37.788215 -122.492056 114 10396ft 386kts
27-Jan-19 11:44 37.760262 -122.419032 112 10365ft 308kts
27-Jan-19 11:45 37.737202 -122.358527 112 9415ft 279kts
27-Jan-19 11:46 37.719177 -122.313133 120 8934ft 249kts
27-Jan-19 11:47 37.699779 -122.278374 123 8525ft 234kts
27-Jan-19 11:48 37.680573 -122.244819 123 8063ft 228kts
27-Jan-19 11:49 37.661361 -122.211186 123 7532ft 225kts
27-Jan-19 11:50 37.639400 -122.172470 123 6849ft 226kts
27-Jan-19 11:50 37.620618 -122.138818 125 6115ft 223kts
27-Jan-19 11:52 37.593772 -122.083464 123 4948ft 219kts
27-Jan-19 11:53 37.560497 -122.056186 199 3924ft 204kts
27-Jan-19 11:54 37.527901 -122.088932 223 3032ft 190kts
27-Jan-19 11:54 37.518180 -122.125539 280 3050ft 181kts
27-Jan-19 11:55 37.530713 -122.172331 292 3023ft 181kts
27-Jan-19 11:57 37.553339 -122.222482 304 2157ft 179kts
27-Jan-19 11:58 37.571063 -122.258904 296 1465ft 147kts
27-Jan-19 11:58 37.580814 -122.284167 297 1124ft 135kts
27-Jan-19 11:59 37.593460 -122.314595 295 765ft 134kts
27-Jan-19 12:00 37.605955 -122.344598 298 211ft 133kts
27-Jan-19 12:01 37.617558 -122.372286 298 18ft 75kts
27-Jan-19 12:02 37.619813 -122.377612 297 18ft 9kts
27-Jan-19 12:03 37.619219 -122.380948 299 18ft 15kts
27-Jan-19 12:04 37.619206 -122.383568 293 18ft 0kts

Navigation Log

Ident Type
Flight plan parsing failed, navigation log unavailable